Time;durP1;ratioP1;P1;durP2;ratioP2;P2;SDS_P1;SDS_P2;PMS_P1;PMS_P2;Temp;Humidity;BMP_temperature;BMP_pressure;BME280_temperature;BME280_humidity;BME280_pressure;Samples;Min_cycle;Max_cycle;Signal;HPM_P1;HPM_P2
2023/01/22 00:00:59;;;;;;;28.23;18.40;;;;;;;-2.68;100.00;97343.84;5013603;28;20616;-61
2023/01/22 00:03:24;;;;;;;29.17;18.47;;;;;;;-2.62;100.00;97343.28;5013990;28;20211;-61
2023/01/22 00:05:51;;;;;;;28.67;18.83;;;;;;;-2.65;100.00;97341.00;5014135;28;20298;-61
2023/01/22 00:08:19;;;;;;;28.37;18.60;;;;;;;-2.77;100.00;97338.66;5014549;28;20193;-61
2023/01/22 00:10:52;;;;;;;30.50;19.13;;;;;;;-2.70;100.00;97332.06;4996686;28;20195;-61
2023/01/22 00:13:19;;;;;;;27.70;18.00;;;;;;;-2.70;100.00;97338.00;5013672;28;20227;-60
2023/01/22 00:15:44;;;;;;;27.83;18.27;;;;;;;-2.77;100.00;97328.38;5014249;28;20529;-60
2023/01/22 00:18:10;;;;;;;23.57;16.90;;;;;;;-2.73;100.00;97327.22;5013373;28;20270;-61
2023/01/22 00:20:36;;;;;;;25.53;16.70;;;;;;;-2.78;100.00;97321.63;5011624;28;20317;-61
2023/01/22 00:23:01;;;;;;;27.93;17.60;;;;;;;-2.77;100.00;97323.25;5013935;28;20238;-62
2023/01/22 00:25:27;;;;;;;29.57;18.57;;;;;;;-2.76;100.00;97314.63;5014040;28;20209;-62
2023/01/22 00:27:52;;;;;;;27.37;19.83;;;;;;;-2.82;100.00;97318.53;5013703;28;20605;-59
2023/01/22 00:30:19;;;;;;;29.80;18.93;;;;;;;-2.54;100.00;97327.25;5013848;28;20210;-59
2023/01/22 00:32:45;;;;;;;28.10;17.70;;;;;;;-2.52;100.00;97315.91;5013785;28;20294;-59
2023/01/22 00:35:11;;;;;;;24.40;17.30;;;;;;;-2.47;100.00;97319.84;5014415;28;20233;-62
2023/01/22 00:37:37;;;;;;;25.50;16.87;;;;;;;-2.66;100.00;97326.53;5014590;28;20668;-61
2023/01/22 00:40:03;;;;;;;26.83;18.03;;;;;;;-2.71;100.00;97323.56;5013917;28;20262;-63
2023/01/22 00:42:28;;;;;;;26.37;17.03;;;;;;;-2.68;100.00;97319.94;5014406;28;20211;-61
2023/01/22 00:44:54;;;;;;;26.57;18.07;;;;;;;-2.64;100.00;97311.03;5013575;28;20214;-61
2023/01/22 00:47:19;;;;;;;24.60;16.73;;;;;;;-2.65;100.00;97322.22;5013210;28;20179;-61
2023/01/22 00:49:45;;;;;;;26.43;17.80;;;;;;;-2.63;100.00;97323.72;5013034;28;20278;-61
2023/01/22 00:52:10;;;;;;;27.07;17.27;;;;;;;-2.54;100.00;97314.41;5013486;28;20277;-61
2023/01/22 00:54:36;;;;;;;26.27;17.17;;;;;;;-2.56;100.00;97318.84;5013330;28;20177;-60
2023/01/22 00:57:01;;;;;;;28.10;19.07;;;;;;;-2.55;100.00;97318.72;5012989;28;20258;-60
2023/01/22 00:59:33;;;;;;;25.97;17.77;;;;;;;-2.51;100.00;97324.44;5013467;28;20179;-61
2023/01/22 01:01:58;;;;;;;23.70;16.20;;;;;;;-2.62;100.00;97320.19;5012703;28;20191;-60
2023/01/22 01:04:23;;;;;;;23.90;17.80;;;;;;;-2.51;100.00;97329.56;5013334;28;20534;-58
2023/01/22 01:06:49;;;;;;;24.93;15.73;;;;;;;-2.43;100.00;97324.56;5012358;28;20187;-60
2023/01/22 01:09:14;;;;;;;23.40;16.63;;;;;;;-2.46;100.00;97329.97;5012606;28;20211;-61
2023/01/22 01:11:40;;;;;;;23.23;16.50;;;;;;;-2.56;100.00;97326.56;5013101;28;20553;-61
2023/01/22 01:14:05;;;;;;;26.83;16.57;;;;;;;-2.58;100.00;97325.88;5013315;28;20281;-61
2023/01/22 01:16:31;;;;;;;25.37;16.03;;;;;;;-2.48;100.00;97325.91;5013089;28;20282;-61
2023/01/22 01:19:02;;;;;;;25.87;16.63;;;;;;;-2.45;100.00;97331.56;5011945;28;20194;-61
2023/01/22 01:21:27;;;;;;;24.60;16.67;;;;;;;-2.46;100.00;97322.28;5012527;28;20192;-60
2023/01/22 01:23:54;;;;;;;25.07;16.60;;;;;;;-2.44;100.00;97327.25;5013108;28;20198;-58
2023/01/22 01:26:20;;;;;;;25.43;16.40;;;;;;;-2.32;100.00;97327.00;5013020;28;20175;-61
2023/01/22 01:28:46;;;;;;;21.43;15.87;;;;;;;-2.39;100.00;97332.78;5013376;28;20198;-61
2023/01/22 01:31:14;;;;;;;23.93;17.53;;;;;;;-2.42;100.00;97321.06;5012658;28;20684;-60
2023/01/22 01:33:41;;;;;;;27.17;17.87;;;;;;;-2.37;100.00;97323.22;5012892;28;20195;-61
2023/01/22 01:36:14;;;;;;;25.83;16.30;;;;;;;-2.38;100.00;97324.16;5013253;28;20206;-60
2023/01/22 01:38:39;;;;;;;25.10;16.80;;;;;;;-2.32;100.00;97323.63;5012880;28;20190;-61
2023/01/22 01:41:06;;;;;;;26.23;17.83;;;;;;;-2.38;100.00;97321.59;5014374;28;20523;-62
2023/01/22 01:43:31;;;;;;;24.47;16.50;;;;;;;-2.21;100.00;97323.50;4996382;28;20199;-61
2023/01/22 01:45:59;;;;;;;26.87;17.20;;;;;;;-2.26;100.00;97325.66;5013032;28;20174;-60
2023/01/22 01:48:40;;;;;;;27.43;18.50;;;;;;;-2.28;100.00;97325.78;5012859;28;20233;-61
2023/01/22 01:51:18;;;;;;;23.57;16.97;;;;;;;-2.30;100.00;97321.75;5012247;28;20187;-61
2023/01/22 01:53:46;;;;;;;28.70;18.47;;;;;;;-2.34;100.00;97326.31;5012242;28;20213;-61
2023/01/22 01:56:22;;;;;;;26.73;17.13;;;;;;;-2.43;100.00;97322.00;5012581;28;20171;-61
2023/01/22 01:58:51;;;;;;;25.07;17.33;;;;;;;-2.38;100.00;97317.28;4996509;28;20641;-61
2023/01/22 02:01:18;;;;;;;24.83;16.67;;;;;;;-2.34;100.00;97323.75;5012511;28;20661;-61
2023/01/22 02:03:45;;;;;;;28.27;18.53;;;;;;;-2.28;100.00;97323.22;5012474;28;20563;-59
2023/01/22 02:06:16;;;;;;;25.97;17.00;;;;;;;-2.20;100.00;97325.13;5012588;28;20198;-61
2023/01/22 02:08:45;;;;;;;25.83;17.77;;;;;;;-2.26;100.00;97320.53;5012466;28;20282;-61
2023/01/22 02:11:11;;;;;;;25.40;17.70;;;;;;;-2.29;100.00;97316.50;5012402;28;20195;-62
2023/01/22 02:13:39;;;;;;;23.57;17.23;;;;;;;-2.20;100.00;97317.44;5012261;28;20709;-61
2023/01/22 02:16:06;;;;;;;30.57;18.90;;;;;;;-2.26;100.00;97316.22;5012147;28;20497;-62
2023/01/22 02:18:32;;;;;;;26.07;17.80;;;;;;;-2.36;100.00;97317.16;5011699;28;20653;-62
2023/01/22 02:21:00;;;;;;;25.90;18.07;;;;;;;-2.34;100.00;97313.50;5010021;28;20239;-62
2023/01/22 02:23:28;;;;;;;26.00;17.90;;;;;;;-2.27;100.00;97319.72;5012414;28;20207;-61
2023/01/22 02:25:55;;;;;;;25.30;17.17;;;;;;;-2.31;100.00;97315.00;5012298;28;20179;-61
2023/01/22 02:28:21;;;;;;;24.47;17.43;;;;;;;-2.25;100.00;97314.47;4997429;28;20705;-62
2023/01/22 02:30:47;;;;;;;28.83;18.47;;;;;;;-2.21;100.00;97314.06;5016416;28;20495;-61
2023/01/22 02:33:13;;;;;;;28.67;17.57;;;;;;;-2.25;100.00;97314.47;5016402;28;20214;-62
2023/01/22 02:35:39;;;;;;;23.73;17.17;;;;;;;-2.12;100.00;97309.88;5016610;28;20269;-61
2023/01/22 02:38:04;;;;;;;26.03;17.83;;;;;;;-2.16;100.00;97311.06;5016282;28;20636;-61
2023/01/22 02:40:30;;;;;;;27.87;19.40;;;;;;;-2.26;100.00;97313.66;5016017;28;20176;-61
2023/01/22 02:42:56;;;;;;;27.23;18.30;;;;;;;-2.13;100.00;97316.78;5016603;28;20290;-62
2023/01/22 02:45:22;;;;;;;25.93;17.47;;;;;;;-2.16;100.00;97314.47;4998501;28;20642;-59
2023/01/22 02:47:48;;;;;;;26.70;18.93;;;;;;;-2.29;100.00;97307.97;5015970;28;20612;-59
2023/01/22 02:50:16;;;;;;;27.13;18.37;;;;;;;-2.23;100.00;97317.72;5016070;28;20297;-61
2023/01/22 02:52:41;;;;;;;25.70;17.93;;;;;;;-2.14;100.00;97311.75;5015347;28;20230;-60
2023/01/22 02:55:11;;;;;;;27.57;18.30;;;;;;;-2.15;100.00;97321.22;5016320;28;20643;-59
2023/01/22 02:57:42;;;;;;;25.43;17.87;;;;;;;-2.16;100.00;97317.03;5066122;23;20240;-62
2023/01/22 03:00:08;;;;;;;25.37;17.93;;;;;;;-2.20;100.00;97314.88;4990112;28;20188;-61
2023/01/22 03:02:34;;;;;;;27.27;18.37;;;;;;;-2.26;100.00;97312.84;5122505;23;20325;-60
2023/01/22 03:05:02;;;;;;;26.07;17.57;;;;;;;-2.20;100.00;97314.88;4997981;28;20623;-61
2023/01/22 03:07:43;;;;;;;24.97;16.87;;;;;;;-2.22;100.00;97314.19;5015645;28;20635;-61
2023/01/22 03:10:15;;;;;;;26.03;17.93;;;;;;;-2.18;100.00;97305.28;5000973;28;20191;-61
2023/01/22 03:21:13;;;;;;;26.60;18.20;;;;;;;-2.04;100.00;97299.72;5015809;28;20186;-61
2023/01/22 03:23:39;;;;;;;28.87;18.37;;;;;;;-2.09;100.00;97301.91;5015650;28;20682;-61
2023/01/22 03:26:05;;;;;;;26.33;17.43;;;;;;;-2.02;100.00;97307.31;5015621;28;20187;-62
2023/01/22 03:28:30;;;;;;;24.60;17.63;;;;;;;-2.07;100.00;97299.19;5015582;28;20179;-62
2023/01/22 03:30:56;;;;;;;24.83;17.83;;;;;;;-2.09;100.00;97301.91;5015334;28;20203;-59
2023/01/22 03:33:21;;;;;;;25.77;17.70;;;;;;;-2.11;100.00;97301.22;5015046;28;20234;-59
2023/01/22 03:35:47;;;;;;;27.27;18.87;;;;;;;-2.17;100.00;97294.84;4997682;28;20179;-59
2023/01/22 03:38:12;;;;;;;27.10;18.47;;;;;;;-2.04;100.00;97309.19;5014681;28;20172;-58
2023/01/22 03:40:38;;;;;;;28.67;18.83;;;;;;;-2.06;100.00;97300.84;5015162;28;20282;-60
2023/01/22 03:43:03;;;;;;;24.97;19.03;;;;;;;-2.12;100.00;97309.88;5014882;28;20257;-60
2023/01/22 03:45:31;;;;;;;30.00;19.87;;;;;;;-2.19;100.00;97311.34;5014568;28;20207;-55
2023/01/22 03:47:56;;;;;;;24.77;17.23;;;;;;;-2.23;100.00;97299.75;5014909;28;20167;-58
2023/01/22 03:50:22;;;;;;;25.03;18.63;;;;;;;-2.12;100.00;97308.09;5014592;28;20205;-57
2023/01/22 03:52:47;;;;;;;27.60;19.53;;;;;;;-2.12;100.00;97307.31;5014445;28;20221;-59
2023/01/22 03:55:13;;;;;;;32.57;20.20;;;;;;;-2.07;100.00;97310.28;5014588;28;20187;-56
2023/01/22 03:57:38;;;;;;;28.80;19.00;;;;;;;-2.10;100.00;97313.09;5014269;28;20198;-58
2023/01/22 04:00:06;;;;;;;24.23;17.73;;;;;;;-2.10;100.00;97318.25;5014332;28;20258;-60
2023/01/22 04:02:32;;;;;;;29.13;19.83;;;;;;;-2.22;100.00;97306.47;5011565;28;20249;-61
2023/01/22 04:04:58;;;;;;;28.97;19.33;;;;;;;-2.15;100.00;97295.53;5014810;28;20510;-61
2023/01/22 04:07:24;;;;;;;29.87;20.63;;;;;;;-2.13;100.00;97313.38;5014243;28;20229;-59
2023/01/22 04:09:51;;;;;;;28.13;19.33;;;;;;;-2.11;100.00;97307.16;5014487;28;20286;-58
2023/01/22 04:12:16;;;;;;;28.30;18.77;;;;;;;-2.14;100.00;97310.00;5014523;28;20180;-58
2023/01/22 04:14:41;;;;;;;25.43;18.47;;;;;;;-2.13;100.00;97313.38;5014694;28;20698;-60
2023/01/22 04:17:07;;;;;;;30.07;18.77;;;;;;;-2.08;100.00;97312.97;5013475;28;20707;-61
2023/01/22 04:19:32;;;;;;;28.73;20.33;;;;;;;-1.96;100.00;97311.91;5014338;28;20176;-60
2023/01/22 04:21:58;;;;;;;29.10;19.60;;;;;;;-1.96;100.00;97317.03;5014040;28;20195;-61
2023/01/22 04:24:23;;;;;;;28.97;18.97;;;;;;;-2.12;100.00;97313.22;5014581;28;20211;-61
2023/01/22 04:26:49;;;;;;;29.13;19.83;;;;;;;-2.05;100.00;97313.50;5015023;28;20176;-63
2023/01/22 04:29:14;;;;;;;28.17;18.03;;;;;;;-2.02;100.00;97312.44;5013905;28;20199;-61
2023/01/22 04:31:39;;;;;;;30.23;21.20;;;;;;;-1.92;100.00;97313.25;5013840;28;20189;-60
2023/01/22 04:34:05;;;;;;;27.03;19.07;;;;;;;-1.93;100.00;97315.00;5014153;28;20207;-61
2023/01/22 04:36:30;;;;;;;27.20;19.00;;;;;;;-2.03;100.00;97314.19;5014134;28;20183;-61
2023/01/22 04:38:56;;;;;;;26.73;19.70;;;;;;;-2.05;100.00;97313.50;4996258;28;20547;-61
2023/01/22 04:41:21;;;;;;;26.80;19.80;;;;;;;-1.99;100.00;97312.16;5013727;28;20175;-61
2023/01/22 04:43:47;;;;;;;27.73;19.20;;;;;;;-1.97;100.00;97320.56;5013807;28;20702;-60
2023/01/22 04:46:12;;;;;;;28.40;19.13;;;;;;;-1.97;100.00;97320.56;5014030;28;20233;-61
2023/01/22 04:48:37;;;;;;;27.73;19.20;;;;;;;-1.92;100.00;97318.38;5013383;28;20183;-61
2023/01/22 04:51:03;;;;;;;35.00;20.43;;;;;;;-1.93;100.00;97317.56;5012454;28;20186;-61
2023/01/22 04:53:28;;;;;;;30.13;19.70;;;;;;;-1.83;100.00;97325.25;5013534;28;20218;-61
2023/01/22 04:55:54;;;;;;;29.70;19.67;;;;;;;-1.90;100.00;97327.59;5013853;28;20251;-61
2023/01/22 04:58:19;;;;;;;31.03;19.70;;;;;;;-1.95;100.00;97326.38;5013508;28;20187;-60
2023/01/22 05:00:44;;;;;;;30.27;19.60;;;;;;;-1.82;100.00;97329.47;5013128;28;20190;-60
2023/01/22 05:03:11;;;;;;;26.20;17.97;;;;;;;-1.91;100.00;97327.72;5010618;28;20254;-60
2023/01/22 05:05:36;;;;;;;25.60;19.20;;;;;;;-1.90;100.00;97337.06;5013879;28;20267;-61
2023/01/22 05:08:02;;;;;;;26.60;18.70;;;;;;;-1.98;100.00;97342.84;5013316;28;20628;-61
2023/01/22 05:10:28;;;;;;;34.60;29.23;;;;;;;-1.93;100.00;97335.56;5013361;28;20191;-59
2023/01/22 05:12:53;;;;;;;29.93;19.50;;;;;;;-1.88;100.00;97337.72;5013633;28;20621;-60
2023/01/22 05:15:19;;;;;;;27.63;18.83;;;;;;;-1.87;100.00;97344.47;5013362;28;20175;-61
2023/01/22 05:17:44;;;;;;;27.97;19.07;;;;;;;-1.88;100.00;97353.94;5014169;28;20221;-61
2023/01/22 05:20:10;;;;;;;28.00;19.73;;;;;;;-1.91;100.00;97345.69;5013353;28;20541;-61
2023/01/22 05:22:35;;;;;;;24.70;19.20;;;;;;;-1.95;100.00;97350.28;5013253;28;20205;-61
2023/01/22 05:25:01;;;;;;;27.23;19.27;;;;;;;-1.97;100.00;97353.94;5013292;28;20548;-58
2023/01/22 05:27:26;;;;;;;27.40;18.60;;;;;;;-1.77;100.00;97352.97;5014153;28;20203;-60
2023/01/22 05:29:52;;;;;;;30.07;19.77;;;;;;;-1.72;100.00;97353.38;5014318;28;20199;-60
2023/01/22 05:32:17;;;;;;;30.37;20.10;;;;;;;-1.84;100.00;97354.50;5013479;28;20183;-59
2023/01/22 05:34:43;;;;;;;27.97;20.10;;;;;;;-1.87;100.00;97359.88;5012875;28;20237;-60
2023/01/22 05:37:08;;;;;;;29.63;19.77;;;;;;;-1.74;100.00;97360.44;5012744;28;20183;-61
2023/01/22 05:39:33;;;;;;;31.03;20.00;;;;;;;-1.73;100.00;97360.28;5013145;28;20635;-62
2023/01/22 05:41:59;;;;;;;31.37;19.73;;;;;;;-1.71;100.00;97368.69;5012762;28;20273;-59
2023/01/22 05:44:42;;;;;;;30.50;20.87;;;;;;;-1.65;100.00;97369.88;5012792;28;20215;-61
2023/01/22 05:47:08;;;;;;;32.30;21.00;;;;;;;-1.73;100.00;97367.97;5013856;28;20197;-56
2023/01/22 05:49:35;;;;;;;26.63;19.87;;;;;;;-1.79;100.00;97367.75;4995590;28;20237;-60
2023/01/22 05:52:00;;;;;;;30.70;20.27;;;;;;;-1.71;100.00;97373.81;5012750;28;20214;-60
2023/01/22 05:54:26;;;;;;;31.17;19.93;;;;;;;-1.66;100.00;97373.41;5012952;28;20230;-59
2023/01/22 05:56:51;;;;;;;27.33;19.93;;;;;;;-1.52;100.00;97369.63;5012633;28;20230;-61
2023/01/22 05:59:17;;;;;;;29.20;20.07;;;;;;;-1.56;100.00;97381.91;4995250;28;20237;-61
2023/01/22 06:01:42;;;;;;;31.60;20.63;;;;;;;-1.53;100.00;97375.69;5010813;28;20603;-61
2023/01/22 06:04:08;;;;;;;28.57;19.47;;;;;;;-1.40;100.00;97374.47;5016645;28;20203;-60
2023/01/22 06:06:33;;;;;;;29.03;20.57;;;;;;;-1.49;100.00;97366.75;5016894;28;20257;-60
2023/01/22 06:08:58;;;;;;;27.53;19.80;;;;;;;-1.43;100.00;97377.31;5016586;28;20210;-60
2023/01/22 06:11:24;;;;;;;27.30;18.80;;;;;;;-1.43;100.00;97369.59;5016717;28;20179;-61
2023/01/22 06:13:50;;;;;;;27.97;19.97;;;;;;;-1.32;100.00;97372.00;5016641;28;20202;-61
2023/01/22 06:16:16;;;;;;;28.80;19.80;;;;;;;-1.48;100.00;97371.78;5015874;28;20580;-61
2023/01/22 06:18:41;;;;;;;27.00;19.17;;;;;;;-1.63;100.00;97380.84;5016738;28;20563;-60
2023/01/22 06:21:07;;;;;;;28.97;20.30;;;;;;;-1.51;100.00;97382.34;5016658;28;20183;-60
2023/01/22 06:23:33;;;;;;;27.47;19.77;;;;;;;-1.43;100.00;97384.19;5016824;28;20296;-60
2023/01/22 06:26:00;;;;;;;29.30;19.90;;;;;;;-1.43;100.00;97386.78;5016367;28;20183;-61
2023/01/22 06:28:27;;;;;;;26.10;17.93;;;;;;;-1.36;100.00;97386.09;5015953;28;20179;-60
2023/01/22 06:30:56;;;;;;;31.03;19.83;;;;;;;-1.35;100.00;97385.16;5015946;28;20203;-60
2023/01/22 06:33:22;;;;;;;29.63;19.40;;;;;;;-1.38;100.00;97394.88;5016107;28;20218;-60
2023/01/22 06:35:57;;;;;;;29.37;19.73;;;;;;;-1.39;100.00;97396.63;5016381;28;20183;-61
2023/01/22 06:38:22;;;;;;;28.10;19.40;;;;;;;-1.56;100.00;97399.13;5016320;28;20509;-61
2023/01/22 06:40:56;;;;;;;27.47;19.93;;;;;;;-1.56;100.00;97394.75;5016056;28;20177;-60
2023/01/22 06:43:23;;;;;;;25.70;19.03;;;;;;;-1.49;100.00;97395.03;5015476;28;20214;-60
2023/01/22 06:45:49;;;;;;;29.50;20.17;;;;;;;-1.38;100.00;97400.03;5015846;28;20206;-60
2023/01/22 06:48:15;;;;;;;26.97;18.23;;;;;;;-1.50;100.00;97407.06;5016224;28;20191;-61
2023/01/22 06:50:41;;;;;;;26.40;18.47;;;;;;;-1.67;100.00;97410.31;5015402;28;20199;-59
2023/01/22 06:53:06;;;;;;;29.17;19.40;;;;;;;-1.67;100.00;97409.53;5016949;28;20207;-60
2023/01/22 06:55:32;;;;;;;27.17;19.03;;;;;;;-1.64;100.00;97411.81;5017173;28;20242;-60
2023/01/22 06:57:57;;;;;;;28.93;18.07;;;;;;;-1.56;100.00;97412.75;5017144;28;20193;-63
2023/01/22 07:00:23;;;;;;;24.60;17.80;;;;;;;-1.76;100.00;97422.22;4998973;28;20179;-60
2023/01/22 07:02:49;;;;;;;27.67;19.07;;;;;;;-1.78;100.00;97418.97;5014693;28;20741;-60
2023/01/22 07:05:14;;;;;;;27.77;19.63;;;;;;;-1.84;100.00;97411.78;5016181;28;20203;-59
2023/01/22 07:07:40;;;;;;;27.57;19.53;;;;;;;-1.85;100.00;97425.59;5016276;28;20539;-59
2023/01/22 07:10:06;;;;;;;26.83;19.50;;;;;;;-1.55;100.00;97422.09;5018089;28;20217;-57
2023/01/22 07:12:32;;;;;;;28.47;18.83;;;;;;;-1.60;100.00;97423.44;5017513;28;20207;-58
2023/01/22 07:14:58;;;;;;;24.40;18.27;;;;;;;-1.63;100.00;97426.28;5016213;28;20277;-60
2023/01/22 07:17:23;;;;;;;27.13;20.10;;;;;;;-1.63;100.00;97426.28;5015357;28;20179;-57
2023/01/22 07:19:48;;;;;;;25.43;18.67;;;;;;;-1.61;100.00;97432.09;5015081;28;20178;-57
2023/01/22 07:22:14;;;;;;;28.83;19.53;;;;;;;-1.63;100.00;97434.81;5015795;28;20262;-59
2023/01/22 07:24:39;;;;;;;27.73;19.60;;;;;;;-1.54;100.00;97434.00;5015568;28;20207;-59
2023/01/22 07:27:05;;;;;;;23.90;18.33;;;;;;;-1.54;100.00;97446.84;5015451;28;20168;-60
2023/01/22 07:29:30;;;;;;;22.73;17.50;;;;;;;-1.59;100.00;97440.47;5015434;28;20202;-56
2023/01/22 07:31:56;;;;;;;23.73;17.80;;;;;;;-1.61;100.00;97440.59;5015191;28;20279;-62
2023/01/22 07:34:21;;;;;;;25.27;18.40;;;;;;;-1.47;100.00;97437.66;5015515;28;20214;-60
2023/01/22 07:36:47;;;;;;;27.30;21.57;;;;;;;-1.38;100.00;97439.41;5015360;28;20210;-58
2023/01/22 07:39:13;;;;;;;27.53;19.60;;;;;;;-1.29;100.00;97441.19;5014897;28;20181;-58
2023/01/22 07:41:40;;;;;;;26.07;19.37;;;;;;;-1.12;100.00;97441.44;5015577;28;20267;-59
2023/01/22 07:44:07;;;;;;;27.20;19.87;;;;;;;-1.11;100.00;97437.88;4997295;28;20671;-58
2023/01/22 07:46:37;;;;;;;24.83;18.00;;;;;;;-1.16;100.00;97443.44;5015782;28;20241;-61
2023/01/22 07:49:03;;;;;;;25.90;18.80;;;;;;;-0.91;100.00;97440.31;5019531;28;20951;-62
2023/01/22 07:51:29;;;;;;;25.30;18.93;;;;;;;-0.84;100.00;97438.00;5015638;28;20176;-62
2023/01/22 07:53:55;;;;;;;27.90;19.03;;;;;;;-0.90;100.00;97438.53;5014676;28;20207;-61
2023/01/22 07:56:21;;;;;;;26.67;18.47;;;;;;;-0.89;100.00;97440.94;5015122;28;20179;-59
2023/01/22 07:58:46;;;;;;;23.83;17.70;;;;;;;-0.77;100.00;97443.38;5014772;28;20601;-61
2023/01/22 08:01:14;;;;;;;26.43;18.30;;;;;;;-0.78;100.00;97442.56;5011638;28;20258;-61
2023/01/22 08:03:40;;;;;;;25.83;19.27;;;;;;;-0.63;100.00;97443.75;5013307;28;20203;-61
2023/01/22 08:06:10;;;;;;;25.20;18.67;;;;;;;-0.77;100.00;97443.38;5013812;28;20637;-61
2023/01/22 08:08:36;;;;;;;25.50;18.70;;;;;;;-0.68;100.00;97448.50;4996649;28;20180;-61
2023/01/22 08:11:01;;;;;;;26.67;18.17;;;;;;;-0.69;100.00;97451.22;5014012;28;20210;-61
2023/01/22 08:13:26;;;;;;;23.77;17.83;;;;;;;-0.77;100.00;97451.91;5013658;28;20206;-61
2023/01/22 08:16:27;;;;;;;25.40;18.20;;;;;;;-0.69;100.00;97459.75;5014212;28;20551;-61
2023/01/22 08:18:52;;;;;;;24.73;17.70;;;;;;;-0.76;100.00;97463.00;5005007;28;20178;-63
2023/01/22 08:21:19;;;;;;;23.07;17.57;;;;;;;-0.60;100.00;97458.91;5014569;28;20270;-61
2023/01/22 08:23:44;;;;;;;23.03;18.03;;;;;;;-0.47;100.00;97466.31;5014545;28;20215;-61
2023/01/22 08:26:10;;;;;;;23.87;18.60;;;;;;;-0.64;100.00;97470.44;5013076;28;20286;-61
2023/01/22 08:28:35;;;;;;;24.97;17.23;;;;;;;-0.58;100.00;97466.47;5014178;28;20258;-61
2023/01/22 08:31:02;;;;;;;26.00;18.77;;;;;;;-0.85;100.00;97486.06;5014105;28;20207;-60
2023/01/22 08:33:30;;;;;;;22.87;17.30;;;;;;;-0.71;100.00;97484.78;5013932;28;20746;-61
2023/01/22 08:35:56;;;;;;;26.43;18.03;;;;;;;-0.90;100.00;97487.44;5014487;28;20544;-64
2023/01/22 08:38:21;;;;;;;27.70;18.73;;;;;;;-0.55;100.00;97486.78;5010016;28;20270;-61
2023/01/22 08:40:51;;;;;;;22.50;17.93;;;;;;;-0.86;100.00;97491.34;5016035;28;20187;-60
2023/01/22 08:43:16;;;;;;;22.13;17.37;;;;;;;-0.63;100.00;97494.41;5013018;28;20207;-61
2023/01/22 08:45:43;;;;;;;25.43;17.47;;;;;;;-0.67;100.00;97490.50;5014148;28;20182;-61
2023/01/22 08:48:09;;;;;;;24.93;17.00;;;;;;;-0.63;100.00;97487.50;5013748;28;20184;-62
2023/01/22 08:50:34;;;;;;;22.50;17.90;;;;;;;-0.65;100.00;97494.53;5013932;28;20203;-60
2023/01/22 08:53:00;;;;;;;23.87;17.83;;;;;;;-0.61;100.00;97492.50;5014215;28;20214;-60
2023/01/22 08:55:28;;;;;;;24.23;17.33;;;;;;;-0.77;100.00;97490.50;5014338;28;20194;-63
2023/01/22 08:57:55;;;;;;;25.87;18.57;;;;;;;-0.58;100.00;97494.81;5013817;28;20190;-61
2023/01/22 09:00:21;;;;;;;25.23;18.07;;;;;;;-0.60;100.00;97487.22;5012994;28;20210;-59
2023/01/22 09:02:46;;;;;;;28.93;19.47;;;;;;;-0.38;100.00;97487.81;5010645;28;20238;-62
2023/01/22 09:05:12;;;;;;;25.27;17.63;;;;;;;-0.29;100.00;97481.84;5012482;28;20186;-62
2023/01/22 09:07:37;;;;;;;27.33;18.47;;;;;;;-0.30;100.00;97493.09;5014116;28;20180;-62
2023/01/22 09:10:06;;;;;;;26.13;18.10;;;;;;;-0.85;100.00;97488.63;5013425;28;20199;-62
2023/01/22 09:12:35;;;;;;;28.07;18.70;;;;;;;-0.54;100.00;97494.38;5012591;28;20207;-62
2023/01/22 09:15:01;;;;;;;29.50;20.50;;;;;;;-0.57;100.00;97493.84;5013947;28;20167;-60
2023/01/22 09:17:27;;;;;;;34.67;19.77;;;;;;;-0.57;100.00;97496.44;5013052;28;20191;-61
2023/01/22 09:19:53;;;;;;;27.33;19.37;;;;;;;-0.44;100.00;97497.72;5013984;28;20171;-61
2023/01/22 09:22:19;;;;;;;29.73;18.63;;;;;;;-0.61;100.00;97493.31;5013807;28;20171;-58
2023/01/22 09:24:45;;;;;;;25.53;17.87;;;;;;;-0.37;100.00;97504.91;5013817;28;20187;-59
2023/01/22 09:27:12;;;;;;;26.70;18.73;;;;;;;-0.35;100.00;97496.09;5015162;28;20205;-62
2023/01/22 09:29:38;;;;;;;28.03;19.53;;;;;;;-0.16;100.00;97497.75;5007358;28;20660;-58
2023/01/22 09:32:03;;;;;;;31.30;19.10;;;;;;;-0.03;100.00;97491.34;4999051;28;20281;-59
2023/01/22 09:34:29;;;;;;;31.10;19.07;;;;;;;0.18;100.00;97493.66;5013620;28;20222;-60
2023/01/22 09:36:54;;;;;;;26.37;19.13;;;;;;;0.13;100.00;97500.22;5013055;28;20214;-60
2023/01/22 09:39:20;;;;;;;25.83;18.43;;;;;;;-0.01;100.00;97499.75;5013534;28;20167;-62
2023/01/22 09:41:50;;;;;;;26.47;18.40;;;;;;;-0.12;100.00;97505.09;5011009;28;20210;-60
2023/01/22 09:44:24;;;;;;;24.90;17.20;;;;;;;-0.10;100.00;97508.31;5009629;28;20265;-59
2023/01/22 09:47:13;;;;;;;26.77;18.23;;;;;;;0.01;100.00;97504.75;5013131;28;20171;-60
2023/01/22 09:49:44;;;;;;;25.50;18.10;;;;;;;-0.12;100.00;97509.44;5012591;28;20211;-58
2023/01/22 09:52:10;;;;;;;27.10;18.17;;;;;;;-0.08;100.00;97508.19;5013066;28;20183;-59
2023/01/22 09:54:36;;;;;;;27.93;19.00;;;;;;;-0.12;100.00;97514.59;5013337;28;20717;-58
2023/01/22 09:57:03;;;;;;;24.03;17.37;;;;;;;-0.17;100.00;97516.78;5014491;28;20231;-59
2023/01/22 09:59:42;;;;;;;26.23;17.83;;;;;;;-0.07;100.00;97525.28;5014629;28;20184;-62
2023/01/22 10:02:32;;;;;;;26.10;17.47;;;;;;;-0.16;100.00;97523.53;5010376;28;20238;-59
2023/01/22 10:05:04;;;;;;;25.57;17.90;;;;;;;-0.14;100.00;97524.19;5013346;28;20183;-60
2023/01/22 10:07:46;;;;;;;23.63;16.57;;;;;;;0.12;100.00;97534.66;5013073;28;20175;-59
2023/01/22 10:10:25;;;;;;;25.70;16.53;;;;;;;0.15;100.00;97518.94;5012986;28;20210;-62
2023/01/22 10:13:10;;;;;;;27.07;18.40;;;;;;;-0.06;100.00;97537.19;5012820;28;20191;-60
2023/01/22 10:15:36;;;;;;;22.43;16.43;;;;;;;-0.16;100.00;97529.50;5011819;28;20209;-61
2023/01/22 10:18:33;;;;;;;27.17;16.90;;;;;;;-0.39;100.00;97540.28;5012581;28;20191;-61
2023/01/22 10:21:02;;;;;;;25.33;17.37;;;;;;;-0.30;100.00;97531.72;4982327;28;20187;-62
2023/01/22 10:23:31;;;;;;;26.17;18.43;;;;;;;-0.44;100.00;97533.78;4999553;28;20198;-63
2023/01/22 10:26:17;;;;;;;25.80;17.87;;;;;;;-0.25;100.00;97532.91;5030491;28;20202;-62
2023/01/22 10:28:49;;;;;;;28.47;19.33;;;;;;;-0.17;100.00;97533.00;5032856;28;20176;-61
2023/01/22 10:31:35;;;;;;;32.70;20.77;;;;;;;-0.14;100.00;97537.91;5032496;28;20182;-59
2023/01/22 10:34:13;;;;;;;36.03;20.53;;;;;;;-0.07;100.00;97540.72;5032526;28;20681;-60
2023/01/22 10:36:39;;;;;;;27.30;18.03;;;;;;;0.03;100.00;97544.06;5032509;28;20575;-61
2023/01/22 10:39:15;;;;;;;25.40;16.67;;;;;;;0.15;100.00;97540.38;5032618;28;20224;-61
2023/01/22 10:41:42;;;;;;;28.33;19.00;;;;;;;0.10;100.00;97539.97;5021424;28;20505;-62
2023/01/22 10:44:21;;;;;;;31.97;18.53;;;;;;;-0.23;100.00;97535.38;5011709;28;20711;-63
2023/01/22 10:46:49;;;;;;;31.93;20.00;;;;;;;-0.26;100.00;97546.75;4993589;28;20233;-61
2023/01/22 10:49:16;;;;;;;25.83;17.90;;;;;;;-0.18;100.00;97544.28;5014062;28;20262;-61
2023/01/22 10:51:48;;;;;;;28.00;22.10;;;;;;;-0.01;100.00;97542.75;4998263;28;20183;-64
2023/01/22 10:54:38;;;;;;;26.10;18.30;;;;;;;0.05;100.00;97549.09;5015226;28;20715;-62
2023/01/22 10:57:20;;;;;;;27.53;17.67;;;;;;;0.11;100.00;97546.75;5015257;28;20371;-63
2023/01/22 10:59:57;;;;;;;23.77;17.43;;;;;;;-0.07;100.00;97545.88;5015147;28;20709;-60
2023/01/22 11:02:25;;;;;;;24.63;17.77;;;;;;;-0.04;100.00;97548.97;5012294;28;20270;-66
2023/01/22 11:04:51;;;;;;;25.30;18.50;;;;;;;0.00;100.00;97546.94;5015936;28;20550;-62
2023/01/22 11:07:27;;;;;;;25.17;18.63;;;;;;;0.08;100.00;97541.88;5016119;28;20179;-60
2023/01/22 11:10:15;;;;;;;29.20;19.03;;;;;;;0.07;100.00;97544.59;5015820;28;20199;-60
2023/01/22 11:12:44;;;;;;;24.83;17.97;;;;;;;0.34;100.00;97539.44;5016104;28;20203;-61
2023/01/22 11:15:19;;;;;;;23.70;17.53;;;;;;;0.09;100.00;97547.84;5015880;28;20620;-63
2023/01/22 11:17:52;;;;;;;23.80;17.43;;;;;;;0.34;100.00;97542.00;5015601;28;20210;-63
2023/01/22 11:20:29;;;;;;;21.50;15.73;;;;;;;0.34;100.00;97539.44;5016190;28;20187;-63